Time;durP1;ratioP1;P1;durP2;ratioP2;P2;SDS_P1;SDS_P2;PMS_P1;PMS_P2;Temp;Humidity;BMP_temperature;BMP_pressure;BME280_temperature;BME280_humidity;BME280_pressure;Samples;Min_cycle;Max_cycle;Signal;HPM_P1;HPM_P2
2023/01/24 00:02:17;;;;;;;15.63;9.90;;;3.10;99.90;;;;;;5030412;28;20036;-53
2023/01/24 00:04:42;;;;;;;16.75;10.68;;;3.10;99.90;;;;;;5032062;28;20441;-53
2023/01/24 00:07:08;;;;;;;14.80;9.73;;;3.10;99.90;;;;;;5031864;28;20029;-48
2023/01/24 00:09:33;;;;;;;16.90;10.82;;;3.10;99.90;;;;;;5032276;28;20105;-52
2023/01/24 00:11:59;;;;;;;13.68;10.50;;;3.10;99.90;;;;;;5031486;28;20374;-55
2023/01/24 00:14:24;;;;;;;14.20;9.57;;;3.20;99.90;;;;;;5032294;28;20013;-50
2023/01/24 00:16:50;;;;;;;17.48;10.45;;;3.10;99.90;;;;;;5032298;28;20349;-50
2023/01/24 00:19:15;;;;;;;17.55;11.07;;;3.10;99.90;;;;;;5032373;28;20080;-51
2023/01/24 00:21:41;;;;;;;18.40;11.65;;;3.00;99.90;;;;;;5031765;28;20026;-50
2023/01/24 00:24:06;;;;;;;18.35;9.93;;;3.00;99.90;;;;;;5029800;28;20449;-53
2023/01/24 00:26:33;;;;;;;18.17;11.10;;;3.00;99.90;;;;;;5032126;28;20076;-50
2023/01/24 00:28:58;;;;;;;17.42;10.13;;;3.00;99.90;;;;;;5032190;28;20477;-53
2023/01/24 00:31:24;;;;;;;16.05;11.32;;;3.00;99.90;;;;;;5041854;22;20132;-58
2023/01/24 00:33:50;;;;;;;18.35;10.75;;;3.00;99.90;;;;;;5011713;28;20444;-54
2023/01/24 00:36:15;;;;;;;22.73;11.90;;;2.90;99.90;;;;;;5012234;28;20556;-58
2023/01/24 00:38:41;;;;;;;18.65;11.38;;;2.90;99.90;;;;;;5012247;28;20473;-57
2023/01/24 00:41:06;;;;;;;23.48;13.95;;;2.90;99.90;;;;;;5012035;28;20518;-56
2023/01/24 00:43:32;;;;;;;19.17;11.85;;;2.90;99.90;;;;;;5011535;28;20049;-57
2023/01/24 00:45:58;;;;;;;17.35;10.77;;;2.90;99.90;;;;;;5010763;28;20029;-56
2023/01/24 00:48:24;;;;;;;20.08;12.20;;;3.00;99.90;;;;;;5011946;28;20049;-58
2023/01/24 00:50:50;;;;;;;18.52;11.60;;;2.90;99.90;;;;;;5011817;28;20109;-56
2023/01/24 00:53:15;;;;;;;20.40;11.98;;;2.90;99.90;;;;;;5011100;28;20112;-58
2023/01/24 00:55:45;;;;;;;16.40;11.02;;;2.90;99.90;;;;;;5011774;28;20478;-56
2023/01/24 00:58:12;;;;;;;17.80;11.82;;;2.80;99.90;;;;;;5012171;28;20034;-59
2023/01/24 01:00:38;;;;;;;17.88;11.88;;;2.90;99.90;;;;;;5010422;28;20037;-56
2023/01/24 01:03:05;;;;;;;19.77;12.07;;;2.90;99.90;;;;;;5011242;28;20094;-56
2023/01/24 01:05:31;;;;;;;20.20;12.02;;;3.00;99.90;;;;;;5011695;28;20026;-59
2023/01/24 01:07:56;;;;;;;18.00;11.50;;;2.90;99.90;;;;;;5011778;28;20030;-57
2023/01/24 01:10:22;;;;;;;17.10;11.63;;;2.90;99.90;;;;;;5011717;28;20030;-57
2023/01/24 01:12:47;;;;;;;20.65;11.77;;;2.90;99.90;;;;;;5011208;28;20370;-58
2023/01/24 01:15:13;;;;;;;18.48;11.63;;;2.90;99.90;;;;;;5011843;28;20025;-57
2023/01/24 01:17:39;;;;;;;20.95;12.45;;;2.90;99.90;;;;;;5010724;28;20040;-57
2023/01/24 01:20:05;;;;;;;20.35;12.20;;;2.90;99.90;;;;;;5011642;28;20053;-57
2023/01/24 01:22:30;;;;;;;20.05;11.95;;;3.00;99.90;;;;;;5009404;28;20375;-56
2023/01/24 01:24:56;;;;;;;17.92;11.27;;;3.00;99.90;;;;;;5009483;28;20087;-58
2023/01/24 01:27:22;;;;;;;18.45;11.57;;;3.00;99.90;;;;;;5011968;28;20084;-58
2023/01/24 01:29:47;;;;;;;19.73;11.60;;;2.90;99.90;;;;;;5010215;28;20073;-58
2023/01/24 01:32:13;;;;;;;19.23;12.38;;;2.90;99.90;;;;;;5009362;28;20040;-59
2023/01/24 01:34:38;;;;;;;19.67;11.00;;;2.80;99.90;;;;;;5010250;28;20440;-58
2023/01/24 01:37:04;;;;;;;15.38;11.15;;;2.90;99.90;;;;;;5010050;28;20026;-59
2023/01/24 01:39:29;;;;;;;17.00;11.35;;;2.90;99.90;;;;;;5010103;28;20026;-58
2023/01/24 01:41:55;;;;;;;21.30;12.30;;;2.90;99.90;;;;;;5010818;28;20116;-57
2023/01/24 01:44:38;;;;;;;17.52;11.50;;;2.90;99.90;;;;;;5011437;28;20026;-58
2023/01/24 01:47:17;;;;;;;18.42;12.02;;;2.90;99.90;;;;;;5011279;28;20371;-57
2023/01/24 01:49:53;;;;;;;19.70;10.88;;;2.90;99.90;;;;;;5010002;28;20050;-57
2023/01/24 01:52:20;;;;;;;19.58;12.18;;;2.90;99.90;;;;;;5009399;28;20022;-57
2023/01/24 01:54:47;;;;;;;19.50;11.73;;;2.90;99.90;;;;;;5011403;28;20105;-57
2023/01/24 01:57:22;;;;;;;20.35;11.50;;;2.80;99.90;;;;;;5011136;28;20026;-58
2023/01/24 01:59:56;;;;;;;20.05;12.52;;;2.80;99.90;;;;;;5011201;28;20068;-55
2023/01/24 02:02:22;;;;;;;20.40;12.57;;;2.80;99.90;;;;;;5010379;28;20037;-58
2023/01/24 02:05:04;;;;;;;22.35;12.52;;;2.80;99.90;;;;;;5013021;28;20068;-57
2023/01/24 02:07:45;;;;;;;24.50;12.57;;;2.80;99.90;;;;;;5014793;28;20022;-57
2023/01/24 02:10:11;;;;;;;18.48;10.90;;;2.80;99.90;;;;;;5014905;28;20022;-56
2023/01/24 02:12:44;;;;;;;20.35;11.63;;;2.80;99.90;;;;;;5012652;28;20116;-57
2023/01/24 02:18:03;;;;;;;21.52;11.98;;;2.70;99.90;;;;;;5014704;28;20517;-58
2023/01/24 02:20:46;;;;;;;17.60;11.43;;;2.70;99.90;;;;;;5014662;28;20032;-59
2023/01/24 02:23:41;;;;;;;18.48;12.32;;;2.70;99.90;;;;;;5011524;28;20026;-58
2023/01/24 02:26:17;;;;;;;20.17;11.63;;;2.70;99.90;;;;;;5014536;28;20036;-59
2023/01/24 02:28:48;;;;;;;19.80;12.00;;;2.70;99.90;;;;;;5014471;28;20041;-59
2023/01/24 02:31:14;;;;;;;17.65;10.30;;;2.70;99.90;;;;;;5014424;28;20104;-58
2023/01/24 02:33:39;;;;;;;19.38;11.70;;;2.60;99.90;;;;;;5013649;28;20471;-58
2023/01/24 02:36:24;;;;;;;20.75;11.77;;;2.60;99.90;;;;;;5014529;28;20136;-59
2023/01/24 02:39:10;;;;;;;22.55;12.27;;;2.60;99.90;;;;;;5014397;28;20060;-59
2023/01/24 02:41:48;;;;;;;18.45;11.15;;;2.60;99.90;;;;;;5014035;28;20022;-56
2023/01/24 02:44:19;;;;;;;18.42;11.25;;;2.70;99.90;;;;;;5013852;28;20025;-59
2023/01/24 02:46:45;;;;;;;21.90;13.55;;;2.70;99.90;;;;;;5013980;28;20092;-58
2023/01/24 02:49:11;;;;;;;21.70;12.38;;;2.70;99.90;;;;;;5014202;28;20025;-60
2023/01/24 02:54:22;;;;;;;20.65;11.70;;;2.70;99.90;;;;;;5014332;28;20028;-56
2023/01/24 02:59:32;;;;;;;17.17;10.32;;;2.70;99.90;;;;;;5014320;28;20032;-58
2023/01/24 03:01:58;;;;;;;18.70;11.77;;;2.70;99.90;;;;;;5013132;28;20421;-58
2023/01/24 03:04:23;;;;;;;20.50;11.68;;;2.60;99.90;;;;;;5014214;28;20025;-58
2023/01/24 03:06:49;;;;;;;21.98;13.15;;;2.70;99.90;;;;;;5014172;28;20029;-56
2023/01/24 03:09:18;;;;;;;21.27;11.82;;;2.60;99.90;;;;;;5013917;28;20022;-59
2023/01/24 03:11:47;;;;;;;20.58;12.48;;;2.60;99.90;;;;;;5013882;28;20018;-56
2023/01/24 03:36:13;;;;;;;17.33;11.52;;;2.80;99.90;;;;;;5013371;28;20037;-57
2023/01/24 03:41:22;;;;;;;21.08;12.25;;;2.80;99.90;;;;;;5013451;28;20036;-57
2023/01/24 03:43:48;;;;;;;15.95;10.90;;;2.80;99.90;;;;;;5012222;28;20030;-55
2023/01/24 03:46:13;;;;;;;18.63;11.13;;;2.80;99.90;;;;;;5013066;28;20036;-59
2023/01/24 03:48:39;;;;;;;17.15;11.32;;;2.80;99.90;;;;;;5012895;28;20493;-58
2023/01/24 03:53:49;;;;;;;17.15;11.02;;;2.80;99.90;;;;;;5012176;28;20032;-58
2023/01/24 03:56:14;;;;;;;18.88;10.65;;;2.80;99.90;;;;;;5011665;28;20034;-56
2023/01/24 03:58:40;;;;;;;21.27;11.52;;;2.70;99.90;;;;;;5012767;28;20501;-56
2023/01/24 04:01:06;;;;;;;17.83;11.63;;;2.70;99.90;;;;;;5012957;28;20132;-59
2023/01/24 04:03:32;;;;;;;18.52;11.80;;;2.70;99.90;;;;;;5012051;28;20026;-55
2023/01/24 04:05:58;;;;;;;15.02;11.07;;;2.80;99.90;;;;;;5012683;28;20072;-60
2023/01/24 04:08:24;;;;;;;17.02;11.57;;;2.80;99.90;;;;;;5012587;28;20030;-58
2023/01/24 04:10:49;;;;;;;21.10;13.18;;;2.70;99.90;;;;;;5012612;28;20076;-58
2023/01/24 04:13:15;;;;;;;21.25;11.48;;;2.70;99.90;;;;;;5011835;28;20026;-58
2023/01/24 04:15:40;;;;;;;19.73;11.98;;;2.70;99.90;;;;;;5012503;28;20404;-54
2023/01/24 04:18:06;;;;;;;22.50;14.07;;;2.80;99.90;;;;;;5012584;28;20032;-61
2023/01/24 04:20:35;;;;;;;20.13;11.75;;;2.80;99.90;;;;;;5012580;28;20030;-59
2023/01/24 04:23:02;;;;;;;19.52;11.88;;;2.80;99.90;;;;;;5010594;28;20107;-59
2023/01/24 04:25:28;;;;;;;17.95;11.55;;;2.80;99.90;;;;;;5012441;28;20489;-52
2023/01/24 04:27:53;;;;;;;21.40;12.43;;;2.80;99.90;;;;;;5011855;28;20041;-58
2023/01/24 04:30:19;;;;;;;20.90;11.93;;;2.80;99.90;;;;;;5012383;28;20034;-58
2023/01/24 04:32:44;;;;;;;22.17;12.32;;;2.80;99.90;;;;;;5011650;28;20105;-56
2023/01/24 04:35:16;;;;;;;23.45;13.15;;;2.80;99.90;;;;;;5012185;28;20014;-59
2023/01/24 04:37:42;;;;;;;23.00;12.98;;;2.80;99.90;;;;;;5011078;28;20026;-60
2023/01/24 04:40:08;;;;;;;19.15;11.70;;;2.80;99.90;;;;;;5010861;28;20032;-58
2023/01/24 04:42:33;;;;;;;20.38;13.05;;;2.90;99.90;;;;;;5010067;28;20034;-59
2023/01/24 04:44:59;;;;;;;21.55;12.88;;;2.90;99.90;;;;;;5012023;28;20041;-59
2023/01/24 04:47:24;;;;;;;20.08;12.48;;;2.80;99.90;;;;;;5010943;28;20257;-58
2023/01/24 04:49:50;;;;;;;21.42;12.70;;;2.80;99.90;;;;;;5011818;28;20022;-57
2023/01/24 04:52:15;;;;;;;19.20;12.23;;;2.80;99.90;;;;;;5011267;28;20393;-59
2023/01/24 04:54:41;;;;;;;20.85;11.52;;;2.90;99.90;;;;;;5011868;28;20026;-58
2023/01/24 04:57:10;;;;;;;21.60;12.68;;;2.80;99.90;;;;;;5011876;28;20026;-58
2023/01/24 04:59:36;;;;;;;20.10;12.20;;;2.80;99.90;;;;;;5012020;28;20030;-56
2023/01/24 05:02:01;;;;;;;19.52;12.65;;;2.90;99.90;;;;;;5009763;28;20160;-56
2023/01/24 05:04:27;;;;;;;19.63;11.48;;;2.80;99.90;;;;;;5011399;28;20543;-59
2023/01/24 05:06:52;;;;;;;21.92;12.65;;;2.80;99.90;;;;;;5011817;28;20101;-55
2023/01/24 05:09:18;;;;;;;19.38;12.60;;;2.80;99.90;;;;;;5011697;28;20026;-58
2023/01/24 05:11:43;;;;;;;18.15;12.05;;;2.80;99.90;;;;;;5011740;28;20041;-55
2023/01/24 05:14:09;;;;;;;18.23;10.82;;;2.90;99.90;;;;;;5010976;28;20041;-56
2023/01/24 05:16:35;;;;;;;23.20;12.18;;;3.00;99.90;;;;;;5011609;28;20045;-59
2023/01/24 05:19:01;;;;;;;20.73;12.00;;;2.90;99.90;;;;;;5010231;28;20113;-59
2023/01/24 05:21:26;;;;;;;16.90;10.90;;;2.90;99.90;;;;;;5011620;28;20049;-57
2023/01/24 05:23:52;;;;;;;18.30;11.15;;;2.90;99.90;;;;;;5008876;28;20028;-58
2023/01/24 05:26:21;;;;;;;20.15;11.23;;;2.90;99.90;;;;;;5011602;28;20040;-58
2023/01/24 05:28:47;;;;;;;18.33;11.88;;;2.90;99.90;;;;;;5011484;28;20022;-55
2023/01/24 05:31:13;;;;;;;20.00;13.02;;;2.90;99.90;;;;;;5011230;28;20065;-59
2023/01/24 05:33:38;;;;;;;18.42;11.10;;;2.90;99.90;;;;;;5011085;28;20026;-56
2023/01/24 05:36:06;;;;;;;17.95;11.20;;;3.00;99.90;;;;;;5011580;28;20508;-58
2023/01/24 05:38:32;;;;;;;18.02;11.50;;;2.90;99.90;;;;;;5011396;28;20034;-54
2023/01/24 05:40:59;;;;;;;20.08;11.35;;;2.90;99.90;;;;;;5015187;28;20223;-59
2023/01/24 05:43:25;;;;;;;18.73;11.43;;;2.90;99.90;;;;;;5014645;28;20026;-58
2023/01/24 05:45:50;;;;;;;19.85;12.88;;;3.00;99.90;;;;;;5013902;28;20052;-57
2023/01/24 05:48:16;;;;;;;19.00;11.82;;;3.00;99.90;;;;;;5015180;28;20030;-59
2023/01/24 05:50:41;;;;;;;19.48;12.35;;;3.00;99.90;;;;;;5015249;28;20018;-58
2023/01/24 05:53:07;;;;;;;21.58;12.23;;;3.00;99.90;;;;;;5014871;28;20137;-60
2023/01/24 05:55:33;;;;;;;20.15;10.73;;;3.00;99.90;;;;;;5014953;28;20049;-60
2023/01/24 05:58:00;;;;;;;18.73;12.10;;;3.00;99.90;;;;;;5015436;28;20104;-58
2023/01/24 06:00:26;;;;;;;20.60;10.95;;;3.10;99.90;;;;;;5014980;28;20022;-60
2023/01/24 06:02:51;;;;;;;18.50;10.85;;;3.00;99.90;;;;;;5014547;28;20113;-54
2023/01/24 06:05:17;;;;;;;18.27;11.77;;;3.00;99.90;;;;;;5015162;28;20105;-57
2023/01/24 06:07:42;;;;;;;22.58;11.85;;;3.10;99.90;;;;;;5015116;28;20175;-54
2023/01/24 06:10:08;;;;;;;17.50;11.15;;;3.00;99.90;;;;;;5014948;28;20025;-58
2023/01/24 06:12:34;;;;;;;16.38;10.60;;;3.10;99.90;;;;;;5014493;28;20030;-57
2023/01/24 06:14:59;;;;;;;18.85;11.73;;;3.00;99.90;;;;;;5014659;28;20482;-59
2023/01/24 06:17:25;;;;;;;17.10;10.82;;;3.00;99.90;;;;;;5014891;28;20056;-58
2023/01/24 06:19:51;;;;;;;17.52;11.07;;;3.00;99.90;;;;;;5013306;28;20533;-55
2023/01/24 06:22:23;;;;;;;17.40;10.57;;;3.00;99.90;;;;;;5014057;28;20036;-58
2023/01/24 06:24:49;;;;;;;19.20;10.07;;;3.10;99.90;;;;;;5012786;28;20026;-55
2023/01/24 06:27:15;;;;;;;17.48;11.00;;;3.10;99.90;;;;;;5015478;28;20038;-55
2023/01/24 06:29:41;;;;;;;15.52;9.93;;;3.00;99.90;;;;;;5016566;28;20482;-54
2023/01/24 06:32:42;;;;;;;17.35;11.23;;;3.10;99.90;;;;;;5035160;22;20064;-55
2023/01/24 06:35:33;;;;;;;18.15;10.55;;;3.00;99.90;;;;;;5003131;28;20034;-56
2023/01/24 06:37:59;;;;;;;16.58;10.90;;;3.00;99.90;;;;;;5014438;28;20033;-55
2023/01/24 06:40:25;;;;;;;16.02;10.45;;;3.00;99.90;;;;;;5014055;28;20030;-53
2023/01/24 06:42:52;;;;;;;17.40;10.63;;;3.10;99.90;;;;;;5013338;28;20026;-57
2023/01/24 06:45:19;;;;;;;18.58;11.98;;;3.00;99.90;;;;;;5013910;28;20034;-52
2023/01/24 06:47:44;;;;;;;17.42;10.55;;;3.00;99.90;;;;;;5014089;28;20034;-55
2023/01/24 06:50:15;;;;;;;20.65;11.13;;;3.00;99.90;;;;;;5013886;28;20393;-55
2023/01/24 06:52:41;;;;;;;16.55;9.32;;;3.00;99.90;;;;;;5013342;28;20351;-51
2023/01/24 06:55:07;;;;;;;13.30;9.65;;;3.00;99.90;;;;;;5012650;28;20034;-50
2023/01/24 06:57:32;;;;;;;17.35;11.05;;;3.10;99.90;;;;;;5013858;28;20034;-56
2023/01/24 06:59:57;;;;;;;16.45;10.32;;;3.10;99.90;;;;;;5013722;28;20021;-58
2023/01/24 07:02:23;;;;;;;16.50;10.32;;;3.10;99.90;;;;;;5011677;28;20536;-54
2023/01/24 07:04:48;;;;;;;15.95;11.40;;;3.20;99.90;;;;;;5012494;28;20512;-55
2023/01/24 07:07:14;;;;;;;17.27;10.57;;;3.20;99.90;;;;;;5013778;28;20117;-57
2023/01/24 07:09:40;;;;;;;16.40;10.73;;;3.10;99.90;;;;;;5012344;28;20236;-52
2023/01/24 07:12:06;;;;;;;16.27;10.50;;;3.10;99.90;;;;;;5013060;28;20037;-52
2023/01/24 07:14:31;;;;;;;18.73;11.27;;;3.10;99.90;;;;;;5013839;28;20026;-54
2023/01/24 07:16:57;;;;;;;18.08;10.38;;;3.20;99.90;;;;;;5013350;28;20037;-55
2023/01/24 07:19:26;;;;;;;19.75;11.27;;;3.20;99.90;;;;;;5013626;28;20504;-56
2023/01/24 07:21:53;;;;;;;16.80;10.90;;;3.20;99.90;;;;;;5013375;28;20029;-50
2023/01/24 07:24:21;;;;;;;17.70;11.50;;;3.20;99.90;;;;;;5012833;28;20026;-49
2023/01/24 07:26:50;;;;;;;15.85;9.55;;;3.30;99.90;;;;;;5012458;28;20540;-52
2023/01/24 07:29:19;;;;;;;17.02;10.25;;;3.20;99.90;;;;;;5014000;28;20026;-53
2023/01/24 07:31:47;;;;;;;16.92;10.80;;;3.10;99.90;;;;;;5013232;28;20029;-56
2023/01/24 07:34:14;;;;;;;15.63;9.95;;;3.20;99.90;;;;;;5013029;28;20076;-51
2023/01/24 07:36:42;;;;;;;16.83;10.32;;;3.20;99.90;;;;;;5013398;28;20036;-53
2023/01/24 07:39:07;;;;;;;21.02;9.93;;;3.20;99.90;;;;;;5013421;28;20030;-53
2023/01/24 07:41:34;;;;;;;15.85;9.70;;;3.30;99.90;;;;;;5013116;28;20381;-48
2023/01/24 07:44:04;;;;;;;14.95;9.02;;;3.30;99.90;;;;;;5012564;28;20038;-53
2023/01/24 07:46:30;;;;;;;15.70;10.15;;;3.30;99.90;;;;;;5012104;28;20022;-55
2023/01/24 07:48:56;;;;;;;14.57;9.48;;;3.20;99.90;;;;;;5013472;28;20030;-58
2023/01/24 07:51:21;;;;;;;11.55;8.85;;;3.20;99.90;;;;;;5012931;28;20521;-51
2023/01/24 07:53:47;;;;;;;14.63;8.57;;;3.30;99.90;;;;;;5012236;28;20153;-49
2023/01/24 07:56:15;;;;;;;13.60;7.88;;;3.30;99.90;;;;;;5012601;28;20022;-55
2023/01/24 07:58:41;;;;;;;12.77;8.65;;;3.30;99.90;;;;;;5012998;28;20409;-54
2023/01/24 08:01:06;;;;;;;12.60;8.40;;;3.30;99.90;;;;;;5011404;28;20109;-55
2023/01/24 08:03:32;;;;;;;12.75;8.65;;;3.40;99.90;;;;;;5011951;28;20022;-52
2023/01/24 08:05:57;;;;;;;12.32;7.95;;;3.40;99.90;;;;;;5011641;28;20116;-53
2023/01/24 08:08:23;;;;;;;10.10;7.88;;;3.40;99.90;;;;;;5012800;28;20030;-52
2023/01/24 08:10:48;;;;;;;13.52;8.60;;;3.40;99.90;;;;;;5012662;28;20022;-55
2023/01/24 08:13:14;;;;;;;13.23;7.78;;;3.40;99.90;;;;;;5012202;28;20022;-56
2023/01/24 08:15:39;;;;;;;11.63;8.18;;;3.40;99.90;;;;;;5012562;28;20028;-57
2023/01/24 08:18:05;;;;;;;11.73;7.55;;;3.40;99.90;;;;;;5011439;28;20460;-51
2023/01/24 08:20:31;;;;;;;12.02;7.30;;;3.30;99.90;;;;;;5011372;28;20087;-50
2023/01/24 08:22:57;;;;;;;10.20;7.18;;;3.30;99.90;;;;;;5010159;28;20025;-56
2023/01/24 08:25:23;;;;;;;10.55;6.93;;;3.30;99.90;;;;;;5012642;28;20117;-56
2023/01/24 08:27:48;;;;;;;11.25;7.75;;;3.30;99.90;;;;;;5012639;28;20148;-52
2023/01/24 08:30:15;;;;;;;11.65;8.13;;;3.30;99.90;;;;;;5011216;28;20402;-51
2023/01/24 08:32:41;;;;;;;13.43;7.82;;;3.30;99.90;;;;;;5010444;28;20037;-53
2023/01/24 08:35:07;;;;;;;14.15;7.95;;;3.40;99.90;;;;;;5012516;28;20021;-56
2023/01/24 08:37:32;;;;;;;13.15;7.70;;;3.30;99.90;;;;;;5012191;28;20116;-55
2023/01/24 08:39:58;;;;;;;12.80;8.93;;;3.40;99.90;;;;;;5012317;28;20022;-52
2023/01/24 08:42:24;;;;;;;10.05;7.18;;;3.40;99.90;;;;;;5011487;28;20069;-54
2023/01/24 08:44:50;;;;;;;13.20;7.82;;;3.30;99.90;;;;;;5010938;28;20021;-56
2023/01/24 08:47:16;;;;;;;12.95;8.77;;;3.30;99.90;;;;;;5012064;28;20033;-53
2023/01/24 08:49:42;;;;;;;11.93;7.53;;;3.40;99.90;;;;;;5012216;28;20473;-55
2023/01/24 08:52:07;;;;;;;12.30;7.60;;;3.40;99.90;;;;;;5010013;28;20516;-55
2023/01/24 08:54:35;;;;;;;11.75;7.82;;;3.40;99.90;;;;;;5012139;28;20464;-55
2023/01/24 08:57:02;;;;;;;13.60;7.57;;;3.40;99.90;;;;;;5011972;28;20026;-54
2023/01/24 08:59:27;;;;;;;12.10;8.48;;;3.40;99.90;;;;;;5012022;28;20018;-56
2023/01/24 09:01:53;;;;;;;12.80;7.70;;;3.30;99.90;;;;;;5011519;28;20083;-50
2023/01/24 09:04:19;;;;;;;13.70;8.63;;;3.40;99.90;;;;;;5011588;28;20025;-56
2023/01/24 09:06:44;;;;;;;13.77;7.13;;;3.40;99.90;;;;;;5010925;28;20032;-56
2023/01/24 09:09:10;;;;;;;10.63;7.32;;;3.50;99.90;;;;;;5010849;28;20042;-53
2023/01/24 09:11:36;;;;;;;11.98;7.88;;;3.50;99.90;;;;;;5010918;28;20022;-52
2023/01/24 09:14:01;;;;;;;11.65;7.78;;;3.60;99.90;;;;;;5010839;28;20109;-54
2023/01/24 09:16:27;;;;;;;12.85;7.75;;;3.60;99.90;;;;;;5011220;28;20084;-54
2023/01/24 09:18:53;;;;;;;15.93;7.88;;;3.60;99.90;;;;;;5011927;28;20033;-57
2023/01/24 09:21:19;;;;;;;12.27;8.23;;;3.50;99.90;;;;;;5011193;28;20033;-56
2023/01/24 09:23:45;;;;;;;14.13;7.57;;;3.60;99.90;;;;;;5008841;28;20113;-54
2023/01/24 09:26:10;;;;;;;10.43;7.20;;;3.70;99.90;;;;;;4995573;28;20037;-55
2023/01/24 09:28:36;;;;;;;10.52;7.20;;;3.70;99.90;;;;;;4993617;28;20026;-48
2023/01/24 09:31:02;;;;;;;11.07;7.68;;;3.70;99.90;;;;;;5011747;28;20026;-53
2023/01/24 09:33:28;;;;;;;12.85;8.43;;;3.70;99.90;;;;;;5009417;28;20192;-53
2023/01/24 09:35:57;;;;;;;9.80;6.70;;;3.70;99.90;;;;;;5011571;28;20127;-51
2023/01/24 09:38:24;;;;;;;10.90;7.47;;;3.70;99.90;;;;;;5011259;28;20026;-51
2023/01/24 09:41:00;;;;;;;10.65;6.68;;;3.70;99.90;;;;;;5010135;28;20026;-54
2023/01/24 09:43:43;;;;;;;16.33;7.40;;;3.70;99.90;;;;;;5010801;28;20445;-54
2023/01/24 09:46:18;;;;;;;9.73;6.95;;;3.70;99.90;;;;;;5010198;28;20028;-56
2023/01/24 09:48:47;;;;;;;10.10;7.63;;;3.60;99.90;;;;;;5010294;28;20505;-52
2023/01/24 09:51:21;;;;;;;21.42;9.23;;;3.50;99.90;;;;;;5010264;28;20034;-54
2023/01/24 09:53:52;;;;;;;13.18;8.18;;;3.50;99.90;;;;;;5010887;28;20037;-53
2023/01/24 09:56:30;;;;;;;10.93;7.13;;;3.50;99.90;;;;;;5011812;28;20022;-53
2023/01/24 09:59:10;;;;;;;12.45;7.40;;;3.60;99.90;;;;;;5010161;28;20490;-56
2023/01/24 10:01:38;;;;;;;12.00;7.28;;;3.60;99.90;;;;;;5011579;28;20405;-50
2023/01/24 10:04:09;;;;;;;10.73;7.25;;;3.60;99.90;;;;;;5009058;28;20022;-55
2023/01/24 10:06:36;;;;;;;13.02;7.57;;;3.60;99.90;;;;;;5010305;28;20030;-54
2023/01/24 10:09:24;;;;;;;9.48;6.72;;;3.60;99.90;;;;;;5011478;28;20457;-55
2023/01/24 10:12:38;;;;;;;9.68;6.40;;;3.60;99.90;;;;;;5010684;28;20401;-52
2023/01/24 10:15:22;;;;;;;9.73;6.93;;;3.60;99.90;;;;;;4965236;28;20522;-53
2023/01/24 10:17:53;;;;;;;9.93;7.25;;;3.60;99.90;;;;;;4990747;28;20506;-53
2023/01/24 10:20:49;;;;;;;10.95;6.82;;;3.60;99.90;;;;;;4990108;28;20112;-51
2023/01/24 10:23:35;;;;;;;10.38;6.80;;;3.50;99.90;;;;;;5005781;28;20482;-56
2023/01/24 10:26:20;;;;;;;8.95;6.88;;;3.50;99.90;;;;;;5013500;28;20037;-57
2023/01/24 10:28:50;;;;;;;10.82;7.07;;;3.60;99.90;;;;;;5014830;28;20032;-54
2023/01/24 10:31:45;;;;;;;16.90;6.97;;;3.50;99.90;;;;;;5014381;28;20029;-57
2023/01/24 10:34:24;;;;;;;11.57;7.40;;;3.50;99.90;;;;;;4992427;28;20038;-57
2023/01/24 10:36:57;;;;;;;8.10;5.97;;;3.60;99.90;;;;;;5014920;28;20462;-54
2023/01/24 10:39:23;;;;;;;11.73;6.63;;;3.50;99.90;;;;;;5014545;28;20054;-57
2023/01/24 10:41:49;;;;;;;10.18;6.63;;;3.60;99.90;;;;;;5014280;28;20532;-57
2023/01/24 10:44:26;;;;;;;10.57;6.45;;;3.60;99.90;;;;;;5014165;28;20045;-51
2023/01/24 10:47:26;;;;;;;12.88;7.18;;;3.60;99.90;;;;;;5012968;28;20030;-54
2023/01/24 10:49:58;;;;;;;11.43;6.25;;;3.60;99.90;;;;;;5014680;28;20560;-56
2023/01/24 10:52:24;;;;;;;10.40;6.68;;;3.70;99.90;;;;;;5013634;28;20029;-56
2023/01/24 10:54:57;;;;;;;8.57;6.55;;;3.70;99.90;;;;;;5014567;28;20026;-58
2023/01/24 10:57:42;;;;;;;10.98;6.40;;;3.70;99.90;;;;;;5007423;28;20029;-53
2023/01/24 11:00:33;;;;;;;8.52;5.82;;;3.70;99.90;;;;;;5008561;28;20030;-57
2023/01/24 11:03:21;;;;;;;9.52;6.25;;;3.60;99.90;;;;;;5011444;28;20026;-55
2023/01/24 11:05:53;;;;;;;10.32;6.68;;;3.50;99.90;;;;;;5012370;28;20037;-53
2023/01/24 11:08:34;;;;;;;11.35;6.28;;;3.50;99.90;;;;;;5012922;28;20073;-56
2023/01/24 11:11:00;;;;;;;10.13;6.20;;;3.50;99.90;;;;;;5012051;28;20057;-57
2023/01/24 11:13:36;;;;;;;8.52;5.95;;;3.50;99.90;;;;;;5011262;28;20022;-54
2023/01/24 11:16:04;;;;;;;7.20;5.45;;;3.50;99.90;;;;;;5011839;28;20509;-53
2023/01/24 11:18:33;;;;;;;9.88;6.60;;;3.50;99.90;;;;;;5012369;28;20034;-54
2023/01/24 11:21:06;;;;;;;12.50;6.18;;;3.50;99.90;;;;;;5013453;28;20057;-59
2023/01/24 11:23:32;;;;;;;9.18;6.93;;;3.60;99.90;;;;;;5012516;28;20049;-54
2023/01/24 11:26:01;;;;;;;11.50;7.47;;;3.50;99.90;;;;;;5013905;28;20112;-56
2023/01/24 11:28:29;;;;;;;7.75;6.13;;;3.60;99.90;;;;;;5013654;28;20018;-56
2023/01/24 11:30:56;;;;;;;8.82;6.65;;;3.50;99.90;;;;;;5013325;28;20060;-59
2023/01/24 11:33:58;;;;;;;9.32;6.45;;;3.50;99.90;;;;;;5012986;28;20053;-56
2023/01/24 11:36:54;;;;;;;8.32;6.13;;;3.50;99.90;;;;;;5012293;28;20022;-54
2023/01/24 11:39:24;;;;;;;;;;;3.50;99.90;;;;;;5014110;28;20030;-51
2023/01/24 11:42:19;;;;;;;10.07;6.95;;;3.40;99.90;;;;;;5012743;28;19913;-51
2023/01/24 11:44:54;;;;;;;10.50;7.03;;;3.40;99.90;;;;;;5013292;28;20025;-53
2023/01/24 11:47:23;;;;;;;9.55;6.82;;;3.50;99.90;;;;;;5012852;28;20452;-56
2023/01/24 11:50:00;;;;;;;11.93;7.18;;;3.50;99.90;;;;;;5013114;28;20434;-64
2023/01/24 11:52:50;;;;;;;10.57;6.90;;;3.50;99.90;;;;;;5012421;28;20021;-60
2023/01/24 11:55:30;;;;;;;8.32;6.15;;;3.60;99.90;;;;;;5014758;28;20036;-58
2023/01/24 11:58:08;;;;;;;10.38;6.18;;;3.60;99.90;;;;;;5015428;28;20026;-60
2023/01/24 12:00:37;;;;;;;13.57;7.25;;;3.60;99.90;;;;;;5012534;28;20026;-63
2023/01/24 12:03:20;;;;;;;9.60;7.40;;;3.50;99.90;;;;;;5013096;28;20409;-64
2023/01/24 12:05:52;;;;;;;8.23;6.00;;;3.50;99.90;;;;;;5013388;28;20030;-57
2023/01/24 12:08:23;;;;;;;8.85;6.40;;;3.50;99.90;;;;;;5012420;28;20101;-55
2023/01/24 12:11:01;;;;;;;11.05;6.95;;;3.50;99.90;;;;;;5011370;28;20087;-57
2023/01/24 12:13:46;;;;;;;8.75;6.93;;;3.50;99.90;;;;;;4990714;28;20034;-59
2023/01/24 12:16:42;;;;;;;7.07;5.57;;;3.50;99.90;;;;;;4995360;28;20309;-62
2023/01/24 12:19:38;;;;;;;9.52;6.53;;;3.40;99.90;;;;;;4994763;28;20061;-59
2023/01/24 12:22:09;;;;;;;;;;;3.40;99.90;;;;;;4994782;28;20034;-59
2023/01/24 12:24:41;;;;;;;7.88;5.90;;;3.50;99.90;;;;;;5000763;28;19988;-59
2023/01/24 12:27:14;;;;;;;9.40;6.18;;;3.40;99.90;;;;;;5012384;28;20037;-62
2023/01/24 12:29:44;;;;;;;9.43;5.68;;;3.50;99.90;;;;;;5013108;28;20046;-57
2023/01/24 12:32:26;;;;;;;9.43;6.20;;;3.50;99.90;;;;;;5011613;28;20053;-60
2023/01/24 12:35:29;;;;;;;8.45;6.68;;;3.50;99.90;;;;;;5034929;23;20564;-53
2023/01/24 12:38:13;;;;;;;10.55;6.75;;;3.60;99.90;;;;;;5031493;28;20389;-50
2023/01/24 12:40:46;;;;;;;8.60;6.03;;;3.70;99.90;;;;;;5030207;28;20029;-56
2023/01/24 12:43:20;;;;;;;9.43;6.88;;;3.70;99.90;;;;;;5030668;28;20033;-58
2023/01/24 12:46:04;;;;;;;9.80;6.50;;;3.70;99.90;;;;;;5011103;28;20053;-53
2023/01/24 12:48:54;;;;;;;12.98;6.53;;;3.70;99.90;;;;;;5011202;28;20041;-58
2023/01/24 12:51:37;;;;;;;9.30;6.70;;;3.70;99.90;;;;;;5011509;28;20046;-55
2023/01/24 12:54:17;;;;;;;8.18;6.00;;;3.70;99.90;;;;;;5002546;28;20461;-51
2023/01/24 12:57:22;;;;;;;18.58;7.13;;;3.70;99.90;;;;;;5007392;28;20018;-60
2023/01/24 12:59:50;;;;;;;9.95;6.90;;;3.80;99.90;;;;;;4955788;28;20509;-62
2023/01/24 13:02:57;;;;;;;8.43;6.28;;;3.80;99.90;;;;;;5008542;28;20034;-63
2023/01/24 13:05:42;;;;;;;11.15;6.25;;;3.90;99.90;;;;;;5007693;28;20034;-63
2023/01/24 13:08:22;;;;;;;9.82;6.60;;;3.80;99.90;;;;;;4994158;28;20054;-65
2023/01/24 13:10:55;;;;;;;8.88;6.43;;;3.80;99.90;;;;;;4995718;28;20086;-64
2023/01/24 13:13:32;;;;;;;45.72;25.33;;;3.80;99.90;;;;;;4993082;28;20113;-65
2023/01/24 13:16:00;;;;;;;64.90;32.85;;;3.70;99.90;;;;;;4993896;28;20026;-64
2023/01/24 13:18:55;;;;;;;11.65;7.18;;;3.70;99.90;;;;;;4994839;28;20027;-63
2023/01/24 13:21:37;;;;;;;10.93;6.93;;;3.60;99.90;;;;;;4994451;28;20065;-61
2023/01/24 13:24:29;;;;;;;8.50;6.93;;;3.60;99.90;;;;;;5012653;28;20022;-65
2023/01/24 13:27:07;;;;;;;8.55;6.22;;;3.60;99.90;;;;;;5013195;28;20026;-65
2023/01/24 13:29:51;;;;;;;8.70;6.22;;;3.60;99.90;;;;;;5011706;28;20061;-64
2023/01/24 13:32:20;;;;;;;8.60;6.50;;;3.70;99.90;;;;;;5010692;28;20022;-65
2023/01/24 13:34:58;;;;;;;10.10;7.00;;;3.70;99.90;;;;;;5010900;28;20561;-64
2023/01/24 13:37:32;;;;;;;8.60;6.47;;;3.70;99.90;;;;;;5012749;28;20022;-64